Time;durP1;ratioP1;P1;durP2;ratioP2;P2;SDS_P1;SDS_P2;PMS_P1;PMS_P2;Temp;Humidity;BMP_temperature;BMP_pressure;BME280_temperature;BME280_humidity;BME280_pressure;Samples;Min_cycle;Max_cycle;Signal;HPM_P1;HPM_P2
2022/01/16 00:01:22;;;;;;;20.85;12.10;;;;;;;3.34;90.11;98868.63;4113647;28;20240;-91
2022/01/16 00:05:49;;;;;;;23.20;12.73;;;;;;;3.32;89.95;98868.69;4099485;28;20244;-90
2022/01/16 00:07:52;;;;;;;22.85;13.20;;;;;;;3.33;89.92;98882.41;4115632;28;20231;-92
2022/01/16 00:09:55;;;;;;;23.70;12.98;;;;;;;3.34;90.32;98895.25;4091340;29;20219;-92
2022/01/16 00:12:00;;;;;;;19.75;12.35;;;;;;;3.33;90.46;98872.94;4075460;29;20243;-91
2022/01/16 00:14:04;;;;;;;23.65;13.50;;;;;;;3.34;90.73;98873.78;4081854;29;20214;-92
2022/01/16 00:16:09;;;;;;;22.08;12.85;;;;;;;3.33;90.35;98870.34;4082153;29;20394;-92
2022/01/16 00:18:22;;;;;;;21.45;12.65;;;;;;;3.36;90.44;98859.13;4080303;29;20213;-91
2022/01/16 00:20:26;;;;;;;22.92;12.55;;;;;;;3.36;90.23;98872.84;4096381;28;20559;-92
2022/01/16 00:22:36;;;;;;;22.67;12.98;;;;;;;3.37;90.59;98876.28;4082204;29;20257;-91
2022/01/16 00:24:40;;;;;;;24.83;13.32;;;;;;;3.40;90.28;98868.47;4099368;29;20736;-92
2022/01/16 00:26:43;;;;;;;23.13;12.35;;;;;;;3.38;89.51;98855.63;4078098;29;20290;-92
2022/01/16 00:28:47;;;;;;;21.83;11.45;;;;;;;3.34;89.22;98833.38;4082569;29;22089;-92
2022/01/16 00:30:52;;;;;;;23.65;13.13;;;;;;;3.33;89.86;98842.00;4082703;29;20235;-91
2022/01/16 00:33:00;;;;;;;24.15;12.15;;;;;;;3.32;89.90;98855.78;4079526;29;20215;-92
2022/01/16 00:35:04;;;;;;;21.67;13.40;;;;;;;3.31;89.21;98858.41;4097157;28;20202;-92
2022/01/16 00:37:07;;;;;;;24.80;12.95;;;;;;;3.26;89.94;98843.94;4083406;29;20229;-92
2022/01/16 00:39:12;;;;;;;23.13;12.30;;;;;;;3.19;89.74;98863.91;4080672;29;20558;-92
2022/01/16 00:41:18;;;;;;;22.05;12.50;;;;;;;3.15;90.22;98866.59;4111953;28;20229;-92
2022/01/16 00:43:21;;;;;;;24.20;12.77;;;;;;;3.18;89.61;98880.22;4092283;28;20209;-91
2022/01/16 00:45:25;;;;;;;25.80;14.30;;;;;;;3.17;90.09;98883.69;4076169;29;20658;-92
2022/01/16 00:47:28;;;;;;;23.70;12.95;;;;;;;3.18;90.02;98871.66;4108006;28;20253;-89
2022/01/16 00:49:34;;;;;;;26.23;12.80;;;;;;;3.19;90.36;98878.50;4096105;28;20240;-91
2022/01/16 00:51:37;;;;;;;25.80;13.98;;;;;;;3.20;90.35;98864.72;4096653;28;20299;-91
2022/01/16 00:53:42;;;;;;;28.05;14.85;;;;;;;3.20;89.94;98852.69;4095092;28;20233;-91
2022/01/16 00:55:47;;;;;;;27.77;14.10;;;;;;;3.22;89.86;98873.25;4083450;29;20214;-91
2022/01/16 00:57:50;;;;;;;27.05;13.25;;;;;;;3.24;89.81;98872.34;4081103;28;20222;-91
2022/01/16 00:59:53;;;;;;;25.38;13.43;;;;;;;3.24;89.54;98881.81;4079994;29;20195;-91
2022/01/16 01:01:57;;;;;;;22.77;12.93;;;;;;;3.23;89.72;98870.63;4096551;29;20213;-91
2022/01/16 01:04:00;;;;;;;22.73;13.15;;;;;;;3.26;89.80;98870.56;4084191;29;20225;-92
2022/01/16 01:06:03;;;;;;;22.77;12.60;;;;;;;3.29;90.06;98881.66;4081209;29;20231;-91
2022/01/16 01:08:07;;;;;;;22.88;12.52;;;;;;;3.33;89.14;98887.56;4095097;29;20213;-92
2022/01/16 01:10:12;;;;;;;24.25;13.52;;;;;;;3.31;89.68;98885.00;4095141;28;20228;-91
2022/01/16 01:12:26;;;;;;;25.33;13.63;;;;;;;3.33;89.59;98888.38;4081410;29;20389;-91
2022/01/16 01:14:39;;;;;;;27.23;14.15;;;;;;;3.32;89.66;98898.72;4078666;29;20229;-92
2022/01/16 01:16:52;;;;;;;25.58;13.45;;;;;;;3.30;89.32;98901.34;4078759;29;20225;-92
2022/01/16 01:18:55;;;;;;;27.77;14.90;;;;;;;3.32;89.91;98897.03;4099220;29;20241;-92
2022/01/16 01:20:59;;;;;;;26.80;14.30;;;;;;;3.33;90.14;98862.63;4075749;29;20319;-91
2022/01/16 01:23:03;;;;;;;26.33;13.35;;;;;;;3.32;90.21;98822.28;4111889;28;20586;-92
2022/01/16 01:25:08;;;;;;;28.00;15.00;;;;;;;3.30;89.68;98793.13;4083994;29;20218;-91
2022/01/16 01:27:17;;;;;;;28.23;15.13;;;;;;;3.27;89.47;98790.63;4076114;29;20215;-92
2022/01/16 01:29:22;;;;;;;26.95;13.68;;;;;;;3.27;90.09;98795.78;4097522;28;20209;-91
2022/01/16 01:31:27;;;;;;;23.83;13.27;;;;;;;3.26;89.53;98787.25;4113696;28;20204;-92
2022/01/16 01:33:30;;;;;;;24.80;13.13;;;;;;;3.26;90.12;98779.53;4079713;29;20214;-92
2022/01/16 01:35:38;;;;;;;23.83;13.50;;;;;;;3.26;89.55;98787.25;4089689;29;20210;-92
2022/01/16 01:37:43;;;;;;;26.25;13.25;;;;;;;3.27;89.61;98826.72;4079644;29;20245;-92
2022/01/16 01:39:46;;;;;;;24.95;12.68;;;;;;;3.27;89.85;98830.19;4077195;29;20232;-92
2022/01/16 01:41:55;;;;;;;27.17;13.63;;;;;;;3.27;90.08;98853.38;4083387;29;20261;-92
2022/01/16 01:51:05;;;;;;;28.23;14.38;;;;;;;3.27;89.53;98861.13;4102424;28;20717;-92
2022/01/16 01:53:09;;;;;;;28.08;14.70;;;;;;;3.26;89.91;98880.03;4097952;28;20673;-92
2022/01/16 01:55:12;;;;;;;27.77;14.43;;;;;;;3.29;89.98;98884.22;4077436;29;20213;-92
2022/01/16 01:57:16;;;;;;;31.38;15.80;;;;;;;3.31;89.68;98885.00;4113073;28;20647;-92
2022/01/16 01:59:19;;;;;;;28.33;15.65;;;;;;;3.30;89.38;98878.16;4097840;29;20212;-92
2022/01/16 02:01:24;;;;;;;26.88;14.27;;;;;;;3.31;89.55;98879.03;4080799;29;20237;-92
2022/01/16 02:03:33;;;;;;;32.58;16.85;;;;;;;3.30;89.25;98891.03;4094536;29;20202;-92
2022/01/16 02:05:36;;;;;;;29.08;16.17;;;;;;;3.34;89.76;98896.97;4078425;29;20336;-92
2022/01/16 02:07:40;;;;;;;29.35;15.20;;;;;;;3.34;89.56;98904.72;4080454;29;21151;-93
2022/01/16 02:09:43;;;;;;;29.75;15.98;;;;;;;3.34;89.20;98910.72;4076270;29;20252;-93
2022/01/16 02:11:48;;;;;;;31.25;16.42;;;;;;;3.35;89.19;98914.13;4073519;29;20607;-92
2022/01/16 02:13:57;;;;;;;27.23;14.50;;;;;;;3.33;89.00;98908.16;4095703;28;20222;-92
2022/01/16 02:28:03;;;;;;;32.65;17.02;;;;;;;3.31;89.43;98879.88;4093378;28;20305;-91
2022/01/16 02:34:42;;;;;;;35.75;17.60;;;;;;;3.35;89.01;98890.91;4094925;28;20569;-91
2022/01/16 02:36:49;;;;;;;30.10;15.25;;;;;;;3.34;89.22;98886.69;4097124;28;20209;-91
2022/01/16 02:38:57;;;;;;;34.17;18.40;;;;;;;3.35;89.31;98889.22;4099461;28;20206;-91
2022/01/16 02:41:03;;;;;;;32.25;17.65;;;;;;;3.36;89.58;98887.47;4077319;28;20837;-91
2022/01/16 02:43:07;;;;;;;32.60;16.67;;;;;;;3.30;88.92;98882.47;4082504;29;20195;-91
2022/01/16 02:45:16;;;;;;;30.60;16.98;;;;;;;3.31;89.13;98877.28;4077619;29;20218;-92
2022/01/16 02:47:21;;;;;;;33.88;16.90;;;;;;;3.16;88.85;98873.41;4089878;29;20257;-91
2022/01/16 02:49:25;;;;;;;34.17;17.45;;;;;;;3.09;88.89;98880.47;4071788;29;20663;-90
2022/01/16 02:51:29;;;;;;;34.63;17.27;;;;;;;3.07;89.52;98865.97;4080193;29;20714;-91
2022/01/16 02:53:34;;;;;;;33.40;18.15;;;;;;;3.09;89.60;98882.22;4090070;29;20222;-91
2022/01/16 02:55:41;;;;;;;35.45;18.60;;;;;;;3.00;89.49;98869.56;4096086;28;20765;-91
2022/01/16 02:57:44;;;;;;;35.35;18.48;;;;;;;2.93;89.78;98870.59;4097640;28;20814;-91
2022/01/16 02:59:51;;;;;;;35.50;17.98;;;;;;;2.94;90.53;98873.16;4094657;29;20241;-91
2022/01/16 03:01:54;;;;;;;36.92;17.73;;;;;;;2.96;90.53;98865.38;4095677;28;20600;-91
2022/01/16 03:03:57;;;;;;;36.85;18.90;;;;;;;2.99;90.18;98865.28;4098076;28;20246;-91
2022/01/16 03:06:01;;;;;;;36.70;18.83;;;;;;;2.99;90.29;98860.16;4074816;29;20226;-91
2022/01/16 03:08:06;;;;;;;35.65;18.30;;;;;;;3.03;90.76;98861.78;4081260;28;20207;-91
2022/01/16 03:10:33;;;;;;;35.63;19.15;;;;;;;3.11;90.42;98864.97;4093876;29;20219;-91
2022/01/16 03:12:40;;;;;;;37.60;18.45;;;;;;;3.10;90.54;98859.00;4079171;29;20227;-91
2022/01/16 03:14:43;;;;;;;42.65;19.70;;;;;;;3.14;90.21;98852.84;4078765;29;20202;-91
2022/01/16 03:16:51;;;;;;;38.25;18.23;;;;;;;3.05;90.39;98854.84;4094070;29;20205;-91
2022/01/16 03:23:35;;;;;;;44.10;19.25;;;;;;;2.93;90.83;98844.84;4078700;29;20254;-90
2022/01/16 03:25:38;;;;;;;44.90;19.75;;;;;;;2.96;91.12;98844.78;4082967;28;20234;-91
2022/01/16 03:27:43;;;;;;;44.72;20.00;;;;;;;3.00;91.31;98848.97;4093836;28;20209;-91
2022/01/16 03:29:50;;;;;;;43.25;20.55;;;;;;;3.04;91.41;98842.88;4090799;29;20210;-90
2022/01/16 03:31:53;;;;;;;43.28;20.30;;;;;;;3.04;91.35;98842.88;4111149;28;20225;-91
2022/01/16 03:33:57;;;;;;;43.80;20.10;;;;;;;3.06;91.05;98835.94;4096946;28;20205;-91
2022/01/16 03:36:03;;;;;;;44.20;20.52;;;;;;;3.07;91.51;98840.22;4080082;29;20258;-91
2022/01/16 03:38:07;;;;;;;52.05;22.00;;;;;;;3.07;91.16;98845.34;4087967;29;20609;-90
2022/01/16 03:40:11;;;;;;;44.00;21.05;;;;;;;3.05;90.90;98840.25;4076172;29;20246;-91
2022/01/16 03:42:22;;;;;;;50.00;21.38;;;;;;;3.01;91.07;98842.94;4092594;28;20201;-91
2022/01/16 03:44:26;;;;;;;42.85;20.30;;;;;;;2.93;91.40;98850.00;4095815;29;20304;-91
2022/01/16 03:46:34;;;;;;;45.38;21.38;;;;;;;2.89;91.79;98851.00;4110429;28;20689;-90
2022/01/16 03:48:38;;;;;;;46.25;20.15;;;;;;;2.90;91.57;98850.09;4076610;29;20667;-91
2022/01/16 03:50:41;;;;;;;47.65;21.88;;;;;;;2.92;92.14;98848.34;4078732;29;20303;-91
2022/01/16 03:52:44;;;;;;;47.28;21.52;;;;;;;2.94;92.13;98851.72;4098410;28;20294;-91
2022/01/16 03:54:47;;;;;;;43.95;21.45;;;;;;;2.85;91.68;98847.63;4079453;29;20306;-91
2022/01/16 03:56:51;;;;;;;50.10;20.92;;;;;;;2.83;92.06;98853.72;4097495;28;20210;-90
2022/01/16 03:58:55;;;;;;;48.60;22.13;;;;;;;2.81;92.18;98858.03;4097502;28;20206;-91
2022/01/16 04:00:59;;;;;;;45.22;21.38;;;;;;;2.80;92.38;98856.38;4088902;29;20300;-91
2022/01/16 04:03:03;;;;;;;44.85;20.70;;;;;;;2.81;92.10;98865.78;4090265;28;20209;-90
2022/01/16 04:05:07;;;;;;;55.92;20.80;;;;;;;2.75;92.20;98865.94;4095701;29;20203;-90
2022/01/16 04:07:15;;;;;;;49.85;21.20;;;;;;;2.73;92.52;98859.16;4079685;29;20226;-90
2022/01/16 04:09:18;;;;;;;50.15;22.77;;;;;;;2.71;92.69;98858.34;4078550;29;20203;-91
2022/01/16 04:11:25;;;;;;;46.00;22.17;;;;;;;2.67;93.22;98861.88;4078503;29;20233;-91
2022/01/16 04:13:30;;;;;;;47.42;20.70;;;;;;;2.66;92.59;98858.47;4090050;28;20305;-91
2022/01/16 04:15:32;;;;;;;43.90;21.40;;;;;;;2.69;92.50;98866.13;4076577;29;20370;-91
2022/01/16 04:17:37;;;;;;;44.67;20.45;;;;;;;2.68;92.63;98866.97;4099673;28;20288;-91
2022/01/16 04:19:40;;;;;;;47.35;21.88;;;;;;;2.72;92.71;98863.47;4096727;29;20212;-91
2022/01/16 04:21:43;;;;;;;47.17;22.35;;;;;;;2.77;92.40;98863.31;4082382;29;20206;-91
2022/01/16 04:23:47;;;;;;;42.92;19.27;;;;;;;2.76;92.20;98859.91;4094710;28;20214;-91
2022/01/16 04:25:50;;;;;;;43.70;20.35;;;;;;;2.74;92.91;98859.09;4093565;28;20210;-91
2022/01/16 04:27:53;;;;;;;44.33;20.00;;;;;;;2.77;92.98;98853.88;4096683;28;20209;-91
2022/01/16 04:29:56;;;;;;;48.03;20.35;;;;;;;2.78;92.81;98855.56;4077468;29;20217;-91
2022/01/16 04:31:59;;;;;;;45.10;22.13;;;;;;;2.80;92.21;98853.81;4091426;29;20225;-91
2022/01/16 04:34:04;;;;;;;46.28;21.00;;;;;;;2.78;92.57;98849.56;4081918;29;20206;-90
2022/01/16 04:36:08;;;;;;;49.67;22.35;;;;;;;2.77;92.43;98835.84;4079037;29;20681;-91
2022/01/16 04:38:11;;;;;;;45.08;20.75;;;;;;;2.79;92.70;98841.81;4080922;29;20233;-91
2022/01/16 04:40:15;;;;;;;57.08;22.95;;;;;;;2.82;92.51;98839.97;4082249;29;20203;-91
2022/01/16 04:44:39;;;;;;;49.65;21.90;;;;;;;2.86;92.72;98840.78;4078917;29;20213;-90
2022/01/16 04:46:46;;;;;;;46.83;21.30;;;;;;;2.90;92.37;98837.22;4110754;28;20220;-91
2022/01/16 04:48:49;;;;;;;52.67;24.30;;;;;;;2.91;91.99;98836.34;4093256;28;20228;-91
2022/01/16 04:50:54;;;;;;;49.85;21.83;;;;;;;2.93;91.80;98816.53;4082044;29;20202;-91
2022/01/16 04:52:57;;;;;;;53.30;22.30;;;;;;;2.92;92.01;98822.59;4078736;29;20251;-91
2022/01/16 04:55:00;;;;;;;47.00;20.90;;;;;;;2.99;91.80;98830.09;4099955;28;20211;-91
2022/01/16 04:57:04;;;;;;;47.90;21.52;;;;;;;3.00;91.58;98831.78;4075459;29;20211;-91
2022/01/16 04:59:07;;;;;;;50.50;22.48;;;;;;;3.02;91.39;98834.31;4094043;28;20256;-91
2022/01/16 05:01:11;;;;;;;48.28;24.10;;;;;;;3.06;91.81;98826.47;4079698;29;20678;-91
2022/01/16 05:03:14;;;;;;;43.45;21.38;;;;;;;3.05;91.19;98823.94;4082809;29;20274;-91
2022/01/16 05:05:17;;;;;;;52.33;23.10;;;;;;;3.02;91.32;98827.44;4079805;29;20211;-91
2022/01/16 05:07:22;;;;;;;45.28;21.25;;;;;;;3.02;90.73;98824.00;4098433;28;20236;-91
2022/01/16 05:09:25;;;;;;;50.42;23.17;;;;;;;3.01;91.08;98825.75;4110200;28;20243;-90
2022/01/16 05:11:28;;;;;;;46.83;22.90;;;;;;;2.92;91.34;98826.00;4095768;29;20209;-90
2022/01/16 05:16:34;;;;;;;49.78;22.70;;;;;;;2.93;91.24;98830.28;4083177;29;20273;-90
2022/01/16 05:18:16;;;;;;;52.17;23.42;;;;;;;3.00;91.08;98846.41;4095757;29;20212;-90
2022/01/16 05:20:20;;;;;;;51.03;23.95;;;;;;;3.00;90.87;98844.66;4076903;29;20587;-91
2022/01/16 05:22:24;;;;;;;51.65;24.08;;;;;;;3.06;90.96;98846.22;4098211;28;20216;-90
2022/01/16 05:24:32;;;;;;;54.53;24.48;;;;;;;3.08;91.18;98841.88;4110557;28;20211;-90
2022/01/16 05:26:36;;;;;;;50.42;22.77;;;;;;;3.09;90.81;98854.72;4075684;29;20213;-91
2022/01/16 05:28:39;;;;;;;54.05;25.67;;;;;;;3.11;91.10;98852.97;4080944;29;20258;-90
2022/01/16 05:30:42;;;;;;;53.22;24.50;;;;;;;3.04;91.12;98838.53;4092357;28;20223;-90
2022/01/16 05:32:45;;;;;;;49.80;23.42;;;;;;;3.07;90.73;98838.47;4098806;28;20236;-91
2022/01/16 05:34:48;;;;;;;49.60;21.80;;;;;;;3.02;91.25;98849.75;4097833;28;20221;-91
2022/01/16 05:36:52;;;;;;;48.75;20.52;;;;;;;2.90;91.40;98847.50;4081256;29;20207;-91
2022/01/16 05:38:57;;;;;;;52.83;22.90;;;;;;;2.84;91.38;98851.09;4078061;29;20257;-90
2022/01/16 05:41:00;;;;;;;48.08;21.95;;;;;;;2.78;92.02;98858.13;4092863;29;20215;-90
2022/01/16 05:43:04;;;;;;;51.17;21.48;;;;;;;2.65;92.20;98859.34;4097330;28;20589;-90
2022/01/16 05:45:08;;;;;;;52.25;22.38;;;;;;;2.60;92.59;98850.91;4077904;29;20278;-91
2022/01/16 05:47:12;;;;;;;57.30;21.27;;;;;;;2.60;92.74;98863.75;4109824;28;20218;-90
2022/01/16 05:49:15;;;;;;;50.50;20.98;;;;;;;2.64;93.06;98860.22;4092403;29;20214;-91
2022/01/16 05:51:19;;;;;;;53.45;23.40;;;;;;;2.60;93.12;98863.75;4092949;28;20216;-91
2022/01/16 05:53:22;;;;;;;53.88;22.75;;;;;;;2.58;93.23;98857.78;4076347;29;20218;-91
2022/01/16 05:55:31;;;;;;;47.08;20.48;;;;;;;2.58;93.24;98847.50;4080128;29;20206;-91
2022/01/16 05:57:34;;;;;;;51.95;21.50;;;;;;;2.62;93.56;98854.25;4094953;29;20221;-91
2022/01/16 05:59:37;;;;;;;53.42;22.92;;;;;;;2.65;93.55;98853.34;4075653;29;20206;-91
2022/01/16 06:01:40;;;;;;;52.78;20.65;;;;;;;2.70;93.61;98859.22;4076665;29;20212;-91
2022/01/16 06:03:44;;;;;;;44.40;20.08;;;;;;;2.69;93.59;98849.78;4089478;29;20867;-91
2022/01/16 06:05:47;;;;;;;51.45;22.42;;;;;;;2.67;92.72;98856.72;4095694;29;20257;-91
2022/01/16 06:07:54;;;;;;;53.38;22.30;;;;;;;2.63;92.98;98865.41;4096463;28;20295;-90
2022/01/16 06:09:58;;;;;;;55.42;22.30;;;;;;;2.59;93.15;98869.78;4085392;29;20210;-90
2022/01/16 06:12:02;;;;;;;51.60;21.90;;;;;;;2.61;93.16;98864.59;4097350;28;20198;-90
2022/01/16 06:14:05;;;;;;;49.08;21.90;;;;;;;2.61;93.23;98864.59;4092980;28;20232;-91
2022/01/16 06:16:09;;;;;;;48.60;21.13;;;;;;;2.65;93.52;98872.22;4097708;28;20205;-91
2022/01/16 06:18:12;;;;;;;50.28;20.80;;;;;;;2.68;93.68;98869.56;4078591;29;20288;-91
2022/01/16 06:20:15;;;;;;;47.15;20.30;;;;;;;2.69;93.30;98875.53;4081637;29;20499;-91
2022/01/16 06:22:18;;;;;;;47.20;21.95;;;;;;;2.73;92.79;98883.16;4078610;29;20233;-91
2022/01/16 06:24:22;;;;;;;48.90;22.30;;;;;;;2.72;93.22;98886.63;4096908;28;20301;-91
2022/01/16 06:26:25;;;;;;;58.92;22.63;;;;;;;2.74;93.85;98887.44;4075485;29;20221;-91
2022/01/16 06:28:31;;;;;;;54.28;22.25;;;;;;;2.76;93.17;98885.66;4113591;28;20198;-91
2022/01/16 06:30:39;;;;;;;56.20;23.20;;;;;;;2.76;93.25;98895.94;4077175;28;20213;-91
2022/01/16 06:32:42;;;;;;;48.80;22.15;;;;;;;2.77;93.24;98895.06;4093402;28;20218;-91
2022/01/16 06:34:45;;;;;;;54.47;21.33;;;;;;;2.81;93.17;98891.53;4095367;29;20261;-91
2022/01/16 06:36:49;;;;;;;53.08;22.23;;;;;;;2.82;93.48;98895.78;4093835;28;20221;-91
2022/01/16 06:38:53;;;;;;;56.53;25.10;;;;;;;2.85;93.22;98895.72;4096150;28;20201;-91
2022/01/16 06:40:56;;;;;;;55.17;24.15;;;;;;;2.88;93.68;98896.47;4097159;29;20201;-91
2022/01/16 06:43:00;;;;;;;49.63;23.55;;;;;;;2.95;93.45;98905.75;4106649;28;20200;-90
2022/01/16 06:45:05;;;;;;;53.03;23.60;;;;;;;3.00;93.10;98910.78;4096422;28;20205;-91
2022/01/16 06:47:09;;;;;;;55.38;24.55;;;;;;;3.03;92.97;98908.13;4094270;29;20213;-91
2022/01/16 06:49:12;;;;;;;50.80;24.00;;;;;;;3.05;92.69;98914.06;4080678;29;20183;-90
2022/01/16 06:51:18;;;;;;;50.92;23.45;;;;;;;3.03;92.64;98910.72;4078396;29;20211;-90
2022/01/16 06:53:21;;;;;;;49.65;23.30;;;;;;;3.04;92.41;98904.69;4095697;29;20218;-88
2022/01/16 06:55:25;;;;;;;46.95;21.90;;;;;;;3.06;92.37;98908.88;4077365;29;20310;-93
2022/01/16 06:57:29;;;;;;;44.30;21.92;;;;;;;3.10;91.66;98910.50;4096548;28;20209;-92
2022/01/16 06:59:34;;;;;;;49.40;23.35;;;;;;;3.13;92.40;98914.72;4099229;28;20221;-93
2022/01/16 07:01:39;;;;;;;47.25;23.50;;;;;;;3.13;91.92;98919.88;4095516;29;20292;-96
2022/01/16 07:03:43;;;;;;;45.55;21.90;;;;;;;3.14;91.06;98916.41;4081550;29;20775;-93
2022/01/16 07:05:47;;;;;;;44.85;22.15;;;;;;;3.16;91.24;98924.94;4096899;28;20305;-92
2022/01/16 07:07:51;;;;;;;49.40;21.90;;;;;;;3.09;91.39;98926.84;4105284;28;20212;-94
2022/01/16 07:09:55;;;;;;;51.88;24.08;;;;;;;3.03;91.06;98929.56;4094379;29;20202;-94
2022/01/16 07:11:58;;;;;;;56.78;25.92;;;;;;;2.97;91.20;98940.03;4093868;28;20690;-94
2022/01/16 07:14:01;;;;;;;46.45;23.38;;;;;;;2.94;90.95;98944.41;4108709;28;20684;-95
2022/01/16 07:16:05;;;;;;;50.88;23.25;;;;;;;2.91;91.03;98949.66;4091261;29;20212;-92
2022/01/16 07:18:10;;;;;;;48.65;22.73;;;;;;;2.86;91.04;98943.78;4081520;29;20225;-92
2022/01/16 07:20:15;;;;;;;48.05;24.40;;;;;;;2.82;91.60;98944.72;4095057;28;20213;-92
2022/01/16 07:22:21;;;;;;;54.33;24.35;;;;;;;2.70;91.54;98947.59;4080610;29;20209;-93
2022/01/16 07:24:26;;;;;;;48.50;23.88;;;;;;;2.69;92.06;98957.91;4065845;29;20305;-94
2022/01/16 07:26:29;;;;;;;50.42;23.05;;;;;;;2.64;92.02;98964.91;4081271;29;20217;-92
2022/01/16 07:28:32;;;;;;;42.15;21.85;;;;;;;2.57;92.14;98974.50;4094931;29;20215;-93
2022/01/16 07:30:37;;;;;;;47.35;23.50;;;;;;;2.57;92.67;98973.66;4095737;28;20202;-93
2022/01/16 07:32:40;;;;;;;55.22;23.13;;;;;;;2.53;93.17;98972.88;4078393;29;20225;-95
2022/01/16 07:34:45;;;;;;;52.58;23.10;;;;;;;2.55;93.08;98967.69;4094452;28;20305;-94
2022/01/16 07:36:49;;;;;;;49.65;23.13;;;;;;;2.54;93.09;98974.59;4097000;29;20681;-94
2022/01/16 07:38:52;;;;;;;51.30;24.08;;;;;;;2.52;92.76;98966.03;4080865;29;20276;-94
2022/01/16 07:40:55;;;;;;;50.65;24.42;;;;;;;2.53;92.92;98956.59;4094184;28;20302;-94
2022/01/16 07:42:59;;;;;;;54.78;22.80;;;;;;;2.54;92.46;98969.44;4093026;29;20778;-94
2022/01/16 07:45:02;;;;;;;53.53;23.65;;;;;;;2.52;92.76;98973.75;4088895;29;20258;-93
2022/01/16 07:47:10;;;;;;;48.13;23.48;;;;;;;2.53;92.64;98984.91;4073613;29;20279;-95
2022/01/16 07:49:13;;;;;;;41.85;21.63;;;;;;;2.49;92.37;98978.97;4078164;29;20221;-94
2022/01/16 07:51:18;;;;;;;44.20;23.40;;;;;;;2.46;92.40;98973.88;4065651;29;20234;-94
2022/01/16 07:53:25;;;;;;;50.88;23.20;;;;;;;2.43;92.22;98981.69;4083621;29;20296;-94
2022/01/16 07:55:28;;;;;;;40.88;21.95;;;;;;;2.38;92.52;98983.50;4080722;29;20673;-93
2022/01/16 07:57:32;;;;;;;42.65;22.50;;;;;;;2.40;92.44;99004.91;4093750;29;20256;-93
2022/01/16 07:59:55;;;;;;;44.20;23.77;;;;;;;2.38;92.74;99003.25;4076068;29;20207;-95
2022/01/16 08:01:59;;;;;;;48.55;23.13;;;;;;;2.29;92.79;99007.78;4081060;29;20228;-93
2022/01/16 08:04:02;;;;;;;46.53;22.27;;;;;;;2.30;93.22;99012.88;4080812;28;20202;-94
2022/01/16 08:06:10;;;;;;;48.00;23.55;;;;;;;2.28;93.10;99016.34;4078113;29;20321;-94
2022/01/16 08:08:15;;;;;;;45.33;22.75;;;;;;;2.28;93.47;99014.63;4081489;29;20264;-94
2022/01/16 08:10:18;;;;;;;50.20;23.27;;;;;;;2.26;93.36;99012.97;4096242;28;20243;-95
2022/01/16 08:12:22;;;;;;;50.33;24.30;;;;;;;2.25;94.10;99011.28;4108834;28;20266;-94
2022/01/16 08:14:25;;;;;;;51.42;24.05;;;;;;;2.27;93.18;99006.94;4097936;29;20449;-92
2022/01/16 08:16:28;;;;;;;54.75;23.52;;;;;;;2.37;93.47;99014.44;4076111;29;20209;-94
2022/01/16 08:18:32;;;;;;;51.65;24.60;;;;;;;2.42;93.56;99015.16;4093325;28;20225;-94
2022/01/16 08:20:36;;;;;;;48.30;23.75;;;;;;;2.52;93.53;99016.66;4081788;29;20600;-95
2022/01/16 08:22:40;;;;;;;45.90;23.30;;;;;;;2.53;93.56;99003.75;4112569;28;20251;-94
2022/01/16 08:24:44;;;;;;;50.47;24.58;;;;;;;2.50;93.30;99014.13;4078076;29;20237;-95
2022/01/16 08:26:48;;;;;;;48.92;23.27;;;;;;;2.50;93.25;99013.28;4111530;28;20213;-94
2022/01/16 08:28:51;;;;;;;55.60;25.00;;;;;;;2.54;93.65;99025.19;4079749;29;20684;-95
2022/01/16 08:30:55;;;;;;;58.38;25.42;;;;;;;2.63;93.92;99015.56;4093729;28;20243;-95
2022/01/16 08:32:58;;;;;;;59.90;27.25;;;;;;;2.66;93.43;99014.63;4074482;28;20219;-95
2022/01/16 08:35:02;;;;;;;47.97;24.27;;;;;;;2.74;93.38;99020.44;4083041;29;20231;-95
2022/01/16 08:37:05;;;;;;;52.15;26.40;;;;;;;2.79;93.39;99025.44;4102230;28;20682;-95
2022/01/16 08:39:08;;;;;;;47.75;24.67;;;;;;;2.85;93.37;99035.63;4082055;29;20285;-94
2022/01/16 08:41:14;;;;;;;53.97;26.80;;;;;;;2.87;93.29;99026.16;4077740;29;20616;-94
2022/01/16 08:43:17;;;;;;;57.00;26.13;;;;;;;2.92;92.53;99033.75;4079867;29;20301;-95
2022/01/16 08:45:21;;;;;;;52.08;26.33;;;;;;;2.95;92.47;99028.53;4077528;29;20272;-94
2022/01/16 08:47:26;;;;;;;53.53;25.77;;;;;;;3.01;92.46;99024.09;4081289;29;20285;-95
2022/01/16 08:49:32;;;;;;;44.45;24.65;;;;;;;3.06;92.30;99023.97;4076166;29;20778;-94
2022/01/16 08:51:39;;;;;;;46.40;23.88;;;;;;;3.09;91.71;99035.03;4076250;29;20337;-92
2022/01/16 08:53:43;;;;;;;48.38;24.38;;;;;;;3.08;91.45;99023.06;4093581;28;20210;-94
2022/01/16 08:55:46;;;;;;;47.30;23.80;;;;;;;3.10;91.50;99034.16;4091118;28;20220;-94
2022/01/16 08:57:51;;;;;;;43.45;23.80;;;;;;;3.14;91.60;99020.31;4095158;28;20209;-92
2022/01/16 08:59:55;;;;;;;47.58;25.67;;;;;;;3.19;91.19;99033.09;4079031;29;20659;-93
2022/01/16 09:01:58;;;;;;;44.95;24.00;;;;;;;3.19;91.14;99043.38;4076566;29;20215;-94
2022/01/16 09:04:02;;;;;;;42.10;22.60;;;;;;;3.21;90.37;99041.66;4079628;29;20207;-94
2022/01/16 09:06:05;;;;;;;48.67;24.30;;;;;;;3.26;91.25;99057.84;4080120;29;20227;-95
2022/01/16 09:08:09;;;;;;;44.88;23.60;;;;;;;3.23;90.11;99063.06;4081996;29;20203;-94
2022/01/16 09:10:13;;;;;;;42.90;23.58;;;;;;;3.24;89.97;99062.19;4077074;29;20258;-92
2022/01/16 09:12:16;;;;;;;40.15;23.65;;;;;;;3.27;89.97;99067.25;4078937;29;20213;-93
2022/01/16 09:14:21;;;;;;;44.58;23.35;;;;;;;3.30;89.29;99068.03;4110510;28;21717;-94
2022/01/16 09:16:24;;;;;;;42.22;23.58;;;;;;;3.28;89.85;99072.38;4108885;28;20209;-90
2022/01/16 09:18:28;;;;;;;41.15;22.75;;;;;;;3.30;89.44;99078.34;4094632;28;20293;-91
2022/01/16 09:20:31;;;;;;;55.35;27.25;;;;;;;3.32;89.00;99087.75;4093243;29;20210;-92
2022/01/16 09:22:36;;;;;;;43.85;24.20;;;;;;;3.26;88.97;99086.19;4074894;29;20211;-90
2022/01/16 09:24:40;;;;;;;42.95;23.23;;;;;;;3.27;88.79;99091.28;4089694;29;20222;-91
2022/01/16 09:26:43;;;;;;;45.75;23.13;;;;;;;3.24;88.81;99087.94;4095631;29;20266;-90
2022/01/16 09:28:47;;;;;;;46.40;24.60;;;;;;;3.20;88.98;99086.31;4091418;28;20211;-91
2022/01/16 09:30:53;;;;;;;46.60;25.23;;;;;;;3.20;88.71;99094.06;4090285;29;22397;-89
2022/01/16 09:32:59;;;;;;;43.72;23.55;;;;;;;3.19;88.70;99095.78;4077812;29;20826;-93
2022/01/16 09:35:05;;;;;;;49.38;26.30;;;;;;;3.18;88.96;99104.38;4109589;28;20271;-92
2022/01/16 09:37:19;;;;;;;48.15;26.27;;;;;;;3.19;89.60;99111.25;4077225;29;20308;-94
2022/01/16 09:39:24;;;;;;;45.92;23.92;;;;;;;3.17;89.49;99107.84;4096775;29;20217;-93
2022/01/16 09:41:30;;;;;;;46.03;24.63;;;;;;;3.17;89.06;99128.44;4084499;29;20256;-96
2022/01/16 09:43:38;;;;;;;49.92;26.52;;;;;;;3.17;88.90;99114.72;4082926;29;20233;-96
2022/01/16 09:45:43;;;;;;;45.22;24.45;;;;;;;3.10;89.26;99105.47;4083609;29;20214;-89
2022/01/16 09:47:48;;;;;;;46.80;23.70;;;;;;;3.13;89.21;99118.25;4098610;29;20206;-91
2022/01/16 09:49:52;;;;;;;51.78;26.75;;;;;;;3.13;90.06;99118.25;4079681;29;20311;-94
2022/01/16 09:51:55;;;;;;;48.15;24.70;;;;;;;3.15;89.58;99124.25;4083314;29;20214;-90
2022/01/16 09:53:59;;;;;;;42.53;24.30;;;;;;;3.19;89.70;99126.72;4095917;28;20220;-89
2022/01/16 09:56:02;;;;;;;40.58;23.60;;;;;;;3.18;89.46;99130.16;4074868;29;20721;-90
2022/01/16 09:58:06;;;;;;;41.88;23.27;;;;;;;3.18;89.76;99130.16;4076827;29;20293;-91
2022/01/16 10:00:12;;;;;;;45.92;23.83;;;;;;;3.19;89.86;99133.56;4080962;29;20318;-91
2022/01/16 10:02:21;;;;;;;47.85;24.33;;;;;;;3.21;90.18;99134.41;4099486;28;20204;-95
2022/01/16 10:04:35;;;;;;;42.03;24.95;;;;;;;3.27;90.26;99129.13;4096831;29;20203;-90
2022/01/16 10:06:39;;;;;;;45.50;24.42;;;;;;;3.31;90.68;99131.59;4092905;28;20595;-92
2022/01/16 10:08:43;;;;;;;45.35;23.05;;;;;;;3.32;89.79;99118.66;4079395;29;20230;-90
2022/01/16 10:10:47;;;;;;;47.35;24.00;;;;;;;3.36;90.28;99112.53;4095385;29;20298;-91
2022/01/16 10:12:54;;;;;;;40.58;22.95;;;;;;;3.27;89.99;99119.63;4093979;28;20293;-93
2022/01/16 10:14:57;;;;;;;46.47;22.38;;;;;;;3.21;90.10;99118.94;4094168;28;20238;-88